createdAt,value
2022-10-19T00:01:01.327Z,14.10
2022-10-19T00:03:30.058Z,14.10
2022-10-19T00:05:57.900Z,14.10
2022-10-19T00:08:25.672Z,14.00
2022-10-19T00:10:53.450Z,14.10
2022-10-19T00:13:21.196Z,14.10
2022-10-19T00:15:50.337Z,14.00
2022-10-19T00:18:18.103Z,14.00
2022-10-19T00:20:45.880Z,14.00
2022-10-19T00:23:13.660Z,14.00
2022-10-19T00:25:41.467Z,14.00
2022-10-19T00:28:09.367Z,13.90
2022-10-19T00:30:38.411Z,13.90
2022-10-19T00:33:07.556Z,13.90
2022-10-19T00:35:35.291Z,13.80
2022-10-19T00:38:03.063Z,13.70
2022-10-19T00:40:30.896Z,13.80
2022-10-19T00:42:58.643Z,13.80
2022-10-19T00:45:26.503Z,13.70
2022-10-19T00:47:54.281Z,13.70
2022-10-19T00:50:23.802Z,13.60
2022-10-19T00:52:51.605Z,13.60
2022-10-19T00:55:19.740Z,13.60
2022-10-19T00:57:47.613Z,13.70
2022-10-19T01:00:15.586Z,13.70
2022-10-19T01:02:43.331Z,13.60
2022-10-19T01:05:12.313Z,13.60
2022-10-19T01:07:41.960Z,13.50
2022-10-19T01:10:10.719Z,13.50
2022-10-19T01:12:59.241Z,13.50
2022-10-19T01:15:37.275Z,13.50
2022-10-19T01:18:13.344Z,13.50
2022-10-19T01:21:23.287Z,13.60
2022-10-19T01:24:23.493Z,13.60
2022-10-19T01:27:10.396Z,13.50
2022-10-19T01:29:57.321Z,13.40
2022-10-19T01:32:32.516Z,13.30
2022-10-19T01:35:08.093Z,13.30
2022-10-19T01:37:42.080Z,13.40
2022-10-19T01:40:15.904Z,13.40
2022-10-19T01:42:47.759Z,13.40
2022-10-19T01:45:19.930Z,13.40
2022-10-19T01:47:51.248Z,13.40
2022-10-19T01:50:25.153Z,13.40
2022-10-19T01:52:56.337Z,13.40
2022-10-19T01:55:27.322Z,13.40
2022-10-19T01:58:00.088Z,13.40
2022-10-19T02:00:30.316Z,13.30
2022-10-19T02:03:00.248Z,13.40
2022-10-19T02:05:32.799Z,13.30
2022-10-19T02:08:03.738Z,13.30
2022-10-19T02:10:33.833Z,13.30
2022-10-19T02:13:03.565Z,13.20
2022-10-19T02:15:37.349Z,13.40
2022-10-19T02:18:07.037Z,13.30
2022-10-19T02:20:36.531Z,13.30
2022-10-19T02:23:05.641Z,13.30
2022-10-19T02:25:33.674Z,13.40
2022-10-19T02:28:03.853Z,13.20
2022-10-19T02:30:33.127Z,13.30
2022-10-19T02:33:01.035Z,13.30
2022-10-19T02:35:29.211Z,13.30
2022-10-19T02:38:00.991Z,13.30
2022-10-19T02:40:30.762Z,13.30
2022-10-19T02:43:04.892Z,13.30
2022-10-19T02:45:38.377Z,13.30
2022-10-19T02:48:09.690Z,13.20
2022-10-19T02:50:37.558Z,13.20
2022-10-19T02:53:05.294Z,13.20
2022-10-19T02:55:33.149Z,13.20
2022-10-19T02:58:00.942Z,13.20
2022-10-19T03:00:28.745Z,13.10
2022-10-19T03:02:57.938Z,13.30
2022-10-19T03:05:27.395Z,13.20
2022-10-19T03:07:55.187Z,13.40
2022-10-19T03:10:22.957Z,13.20
2022-10-19T03:12:50.899Z,13.40
2022-10-19T03:15:19.744Z,13.20
2022-10-19T03:17:47.568Z,13.10
2022-10-19T03:20:16.828Z,13.10
2022-10-19T03:22:44.590Z,13.10
2022-10-19T03:25:12.332Z,13.10
2022-10-19T03:27:40.143Z,13.10
2022-10-19T03:30:08.792Z,13.20
2022-10-19T03:32:36.554Z,13.10
2022-10-19T03:35:04.398Z,13.10
2022-10-19T03:37:33.803Z,13.10
2022-10-19T03:40:01.840Z,13.10
2022-10-19T03:42:29.681Z,13.10
2022-10-19T03:44:57.441Z,13.10
2022-10-19T03:47:25.328Z,13.20
2022-10-19T03:49:53.089Z,13.20
2022-10-19T03:52:21.179Z,13.20
2022-10-19T03:54:52.070Z,13.20
2022-10-19T03:57:19.916Z,13.10
2022-10-19T03:59:47.679Z,13.20
2022-10-19T04:02:15.447Z,13.20
2022-10-19T04:04:43.191Z,13.20
2022-10-19T04:07:10.917Z,13.20
2022-10-19T04:09:38.665Z,13.20
2022-10-19T04:12:07.876Z,13.20
2022-10-19T04:14:52.418Z,13.10
2022-10-19T04:17:23.340Z,13.10
2022-10-19T04:19:51.087Z,13.10
2022-10-19T04:22:18.811Z,13.10
2022-10-19T04:24:46.569Z,13.00
2022-10-19T04:27:15.643Z,13.00
2022-10-19T04:29:43.405Z,13.00
2022-10-19T04:32:11.144Z,13.00
2022-10-19T04:34:40.099Z,13.10
2022-10-19T04:37:08.089Z,13.00
2022-10-19T04:39:39.341Z,13.00
2022-10-19T04:42:07.147Z,13.00
2022-10-19T04:44:36.289Z,13.10
2022-10-19T04:47:04.100Z,13.00
2022-10-19T04:49:31.816Z,13.10
2022-10-19T04:51:59.548Z,13.10
2022-10-19T04:54:27.283Z,13.00
2022-10-19T04:56:55.045Z,13.00
2022-10-19T04:59:22.776Z,13.00
2022-10-19T05:01:51.871Z,13.00
2022-10-19T05:04:19.596Z,13.10
2022-10-19T05:06:47.327Z,13.00
2022-10-19T05:09:15.070Z,13.00
2022-10-19T05:11:42.832Z,13.00
2022-10-19T05:14:10.652Z,13.00
2022-10-19T05:16:38.432Z,13.00
2022-10-19T05:19:07.508Z,13.00
2022-10-19T05:21:35.234Z,13.00
2022-10-19T05:24:03.135Z,13.00
2022-10-19T05:26:31.051Z,13.00
2022-10-19T05:29:01.911Z,13.00
2022-10-19T05:31:31.688Z,13.10
2022-10-19T05:34:00.074Z,13.00
2022-10-19T05:36:34.371Z,13.00
2022-10-19T05:39:03.967Z,13.00
2022-10-19T05:41:31.776Z,13.00
2022-10-19T05:44:01.271Z,13.10
2022-10-19T05:46:30.565Z,13.00
2022-10-19T05:48:59.471Z,13.00
2022-10-19T05:51:29.618Z,13.00
2022-10-19T05:53:58.465Z,13.00
2022-10-19T05:56:27.644Z,13.00
2022-10-19T05:58:57.302Z,13.00
2022-10-19T06:01:25.337Z,13.00
2022-10-19T06:03:54.652Z,13.00
2022-10-19T06:06:23.032Z,13.00
2022-10-19T06:08:53.098Z,13.00
2022-10-19T06:11:22.630Z,12.90
2022-10-19T06:13:51.474Z,13.00
2022-10-19T06:16:20.352Z,13.00
2022-10-19T06:18:48.523Z,13.00
2022-10-19T06:21:20.490Z,13.00
2022-10-19T06:23:53.049Z,12.90
2022-10-19T06:26:21.108Z,13.00
2022-10-19T06:28:50.126Z,13.00
2022-10-19T06:31:18.732Z,13.00
2022-10-19T06:33:49.293Z,13.00
2022-10-19T06:36:19.994Z,13.00
2022-10-19T06:38:48.263Z,13.00
2022-10-19T06:41:17.720Z,13.10
2022-10-19T06:43:45.536Z,13.10
2022-10-19T06:46:17.672Z,13.10
2022-10-19T06:48:45.442Z,13.10
2022-10-19T06:51:13.666Z,13.10
2022-10-19T06:53:41.440Z,13.10
2022-10-19T06:56:11.016Z,13.10
2022-10-19T06:58:40.340Z,13.10
2022-10-19T07:01:09.589Z,13.20
2022-10-19T07:03:38.560Z,13.20
2022-10-19T07:06:08.315Z,13.20
2022-10-19T07:08:37.525Z,13.20
2022-10-19T07:11:07.791Z,13.40
2022-10-19T07:13:36.025Z,13.30
2022-10-19T07:16:07.406Z,13.30
2022-10-19T07:18:36.430Z,13.40
2022-10-19T07:21:06.664Z,13.40
2022-10-19T07:23:36.244Z,13.30
2022-10-19T07:26:06.818Z,13.40
2022-10-19T07:28:35.494Z,13.40
2022-10-19T07:31:08.166Z,13.40
2022-10-19T07:33:36.186Z,13.40
2022-10-19T07:36:05.820Z,13.50
2022-10-19T07:38:34.751Z,13.50
2022-10-19T07:41:04.228Z,13.50
2022-10-19T07:43:32.076Z,13.50
2022-10-19T07:46:01.146Z,13.60
2022-10-19T07:48:30.670Z,13.60
2022-10-19T07:50:58.508Z,13.70
2022-10-19T07:53:26.329Z,13.60
2022-10-19T07:55:54.073Z,13.70
2022-10-19T07:58:21.872Z,13.70
2022-10-19T08:00:49.612Z,13.80
2022-10-19T08:06:08.281Z,13.90
2022-10-19T08:08:36.671Z,13.90
2022-10-19T08:11:08.761Z,13.90
2022-10-19T08:13:36.542Z,14.00
2022-10-19T08:16:04.764Z,14.00
2022-10-19T08:21:07.257Z,14.00
2022-10-19T08:23:34.981Z,14.10
2022-10-19T08:26:02.762Z,14.00
2022-10-19T08:28:30.487Z,14.10
2022-10-19T08:30:59.017Z,14.20
2022-10-19T08:33:27.442Z,14.20
2022-10-19T08:35:55.207Z,14.30
2022-10-19T08:38:24.259Z,14.30
2022-10-19T08:40:52.133Z,14.40
2022-10-19T08:43:26.443Z,14.40
2022-10-19T08:46:00.249Z,14.40
2022-10-19T08:48:32.812Z,14.50
2022-10-19T08:51:01.767Z,14.40
2022-10-19T08:53:41.287Z,14.50
2022-10-19T08:56:45.813Z,14.60
2022-10-19T08:59:15.955Z,14.60
2022-10-19T09:01:49.039Z,14.70
2022-10-19T09:04:23.277Z,14.80
2022-10-19T09:07:00.640Z,14.80
2022-10-19T09:09:32.375Z,14.80
2022-10-19T09:12:05.668Z,15.00
2022-10-19T09:14:36.800Z,15.00
2022-10-19T09:17:10.983Z,15.00
2022-10-19T09:19:38.727Z,15.10
2022-10-19T09:22:09.352Z,15.10
2022-10-19T09:24:44.913Z,15.10
2022-10-19T09:27:20.943Z,15.20
2022-10-19T09:29:52.053Z,15.20
2022-10-19T09:32:23.031Z,15.30
2022-10-19T09:34:53.696Z,15.40
2022-10-19T09:37:26.389Z,15.50
2022-10-19T09:39:56.800Z,15.60
2022-10-19T09:42:28.953Z,15.60
2022-10-19T09:44:57.771Z,15.50
2022-10-19T09:47:34.705Z,15.60
2022-10-19T09:50:09.840Z,15.70
2022-10-19T09:52:39.706Z,15.90
2022-10-19T09:55:22.623Z,16.00
2022-10-19T09:58:00.225Z,16.10
2022-10-19T10:00:36.449Z,16.20
2022-10-19T10:03:05.926Z,16.20
2022-10-19T10:05:36.161Z,16.30
2022-10-19T10:08:04.871Z,16.30
2022-10-19T10:10:40.047Z,16.40
2022-10-19T10:13:07.834Z,16.40
2022-10-19T10:15:48.262Z,16.50
2022-10-19T10:18:17.674Z,16.60
2022-10-19T10:21:13.042Z,16.60
2022-10-19T10:23:41.146Z,16.60
2022-10-19T10:26:20.391Z,16.50
2022-10-19T10:28:50.075Z,16.40
2022-10-19T10:31:23.332Z,16.50
2022-10-19T10:33:56.512Z,16.60
2022-10-19T10:36:29.029Z,16.50
2022-10-19T10:39:04.385Z,16.50
2022-10-19T10:41:39.328Z,16.50
2022-10-19T10:44:10.185Z,16.50
2022-10-19T10:46:44.696Z,16.60
2022-10-19T10:49:21.000Z,16.60
2022-10-19T10:51:53.009Z,16.60
2022-10-19T10:54:22.768Z,16.70
2022-10-19T10:57:13.011Z,16.70
2022-10-19T10:59:48.245Z,16.70
2022-10-19T11:05:02.766Z,16.70
2022-10-19T11:07:33.902Z,16.80
2022-10-19T11:10:09.770Z,16.80
2022-10-19T11:12:42.613Z,16.70
2022-10-19T11:15:19.540Z,16.60
2022-10-19T11:17:58.296Z,16.70
2022-10-19T11:20:30.323Z,16.60
2022-10-19T11:23:07.960Z,16.80
2022-10-19T11:25:47.020Z,16.80
2022-10-19T11:28:28.079Z,16.90
2022-10-19T11:31:00.544Z,16.80
2022-10-19T11:33:40.996Z,16.90
2022-10-19T11:36:18.138Z,16.80
2022-10-19T11:38:58.329Z,16.90
2022-10-19T11:41:31.620Z,16.90
2022-10-19T11:44:17.803Z,16.80
2022-10-19T11:46:55.679Z,16.80
2022-10-19T11:49:38.673Z,16.70
2022-10-19T11:52:13.169Z,16.70
2022-10-19T11:54:52.694Z,16.70
2022-10-19T11:57:24.832Z,16.70
2022-10-19T12:00:14.590Z,16.70
2022-10-19T12:03:03.813Z,16.70
2022-10-19T12:05:37.919Z,16.70
2022-10-19T12:08:22.329Z,16.70
2022-10-19T12:10:57.979Z,16.80
2022-10-19T12:13:30.780Z,16.80
2022-10-19T12:16:01.529Z,16.90
2022-10-19T12:18:35.863Z,17.00
2022-10-19T12:21:08.777Z,16.90
2022-10-19T12:23:38.869Z,16.90
2022-10-19T12:26:11.136Z,16.90
2022-10-19T12:28:43.131Z,16.80
2022-10-19T12:31:13.620Z,16.90
2022-10-19T12:33:47.967Z,16.90
2022-10-19T12:36:27.286Z,17.00
2022-10-19T12:39:03.860Z,17.00
2022-10-19T12:41:37.927Z,17.00
2022-10-19T12:44:33.823Z,17.00
2022-10-19T12:47:11.980Z,17.10
2022-10-19T12:49:50.397Z,17.00
2022-10-19T12:52:39.652Z,17.10
2022-10-19T12:55:25.588Z,17.20
2022-10-19T12:58:03.320Z,17.30
2022-10-19T13:00:34.243Z,17.30
2022-10-19T13:03:07.346Z,17.30
2022-10-19T13:05:36.191Z,17.20
2022-10-19T13:08:08.076Z,17.30
2022-10-19T13:10:38.762Z,17.40
2022-10-19T13:13:06.766Z,17.50
2022-10-19T13:15:58.996Z,17.50
2022-10-19T13:19:00.523Z,17.60
2022-10-19T13:21:52.386Z,17.60
2022-10-19T13:24:37.901Z,17.50
2022-10-19T13:27:28.464Z,17.50
2022-10-19T13:29:56.760Z,17.40
2022-10-19T13:32:38.106Z,17.50
2022-10-19T13:35:27.373Z,17.50
2022-10-19T13:38:30.371Z,17.60
2022-10-19T13:41:02.876Z,17.50
2022-10-19T13:43:33.829Z,17.50
2022-10-19T13:46:08.314Z,17.60
2022-10-19T13:48:54.743Z,17.60
2022-10-19T13:51:31.965Z,17.60
2022-10-19T13:54:11.345Z,17.50
2022-10-19T13:56:56.792Z,17.60
2022-10-19T14:00:00.289Z,17.60
2022-10-19T14:03:05.412Z,17.50
2022-10-19T14:05:53.590Z,17.60
2022-10-19T14:08:48.922Z,17.50
2022-10-19T14:11:20.252Z,17.40
2022-10-19T14:14:08.047Z,17.40
2022-10-19T14:16:35.913Z,17.40
2022-10-19T14:19:03.718Z,17.50
2022-10-19T14:21:33.022Z,17.50
2022-10-19T14:24:01.031Z,17.50
2022-10-19T14:26:31.428Z,17.50
2022-10-19T14:29:00.863Z,17.50
2022-10-19T14:31:35.050Z,17.50
2022-10-19T14:34:05.566Z,17.50
2022-10-19T14:36:37.450Z,17.40
2022-10-19T14:39:06.039Z,17.40
2022-10-19T14:41:37.197Z,17.40
2022-10-19T14:44:33.746Z,17.30
2022-10-19T14:47:02.321Z,17.30
2022-10-19T14:49:30.155Z,17.20
2022-10-19T14:52:01.464Z,17.10
2022-10-19T14:54:33.104Z,17.30
2022-10-19T14:57:05.715Z,17.30
2022-10-19T14:59:37.165Z,17.20
2022-10-19T15:02:13.329Z,17.30
2022-10-19T15:04:41.243Z,17.30
2022-10-19T15:07:19.901Z,17.20
2022-10-19T15:09:55.480Z,17.20
2022-10-19T15:12:28.268Z,17.20
2022-10-19T15:14:56.764Z,17.20
2022-10-19T15:17:29.651Z,17.10
2022-10-19T15:20:00.733Z,17.10
2022-10-19T15:22:41.077Z,17.10
2022-10-19T15:25:26.167Z,17.00
2022-10-19T15:27:55.364Z,17.10
2022-10-19T15:30:29.115Z,17.10
2022-10-19T15:33:11.151Z,17.00
2022-10-19T15:35:40.514Z,17.00
2022-10-19T15:38:14.557Z,17.00
2022-10-19T15:40:44.794Z,17.00
2022-10-19T15:43:46.645Z,16.90
2022-10-19T15:46:32.521Z,16.90
2022-10-19T15:49:04.281Z,16.90
2022-10-19T15:51:35.405Z,16.90
2022-10-19T15:54:04.864Z,16.80
2022-10-19T15:56:34.460Z,16.80
2022-10-19T15:59:06.264Z,16.80
2022-10-19T16:01:34.743Z,16.90
2022-10-19T16:04:02.829Z,16.80
2022-10-19T16:06:33.664Z,16.80
2022-10-19T16:09:02.037Z,16.70
2022-10-19T16:11:30.887Z,16.70
2022-10-19T16:13:58.624Z,16.70
2022-10-19T16:16:30.742Z,16.70
2022-10-19T16:18:59.276Z,16.70
2022-10-19T16:21:29.377Z,16.60
2022-10-19T16:23:57.300Z,16.70
2022-10-19T16:26:26.253Z,16.60
2022-10-19T16:28:55.060Z,16.50
2022-10-19T16:31:23.946Z,16.50
2022-10-19T16:33:53.231Z,16.50
2022-10-19T16:36:20.999Z,16.50
2022-10-19T16:38:49.220Z,16.50
2022-10-19T16:41:17.092Z,16.40
2022-10-19T16:43:44.993Z,16.40
2022-10-19T16:46:12.735Z,16.50
2022-10-19T16:48:40.454Z,16.40
2022-10-19T16:51:24.672Z,16.40
2022-10-19T16:53:54.103Z,16.50
2022-10-19T16:56:21.953Z,16.50
2022-10-19T16:58:49.769Z,16.60
2022-10-19T17:01:19.564Z,16.40
2022-10-19T17:03:48.715Z,16.30
2022-10-19T17:06:18.808Z,16.40
2022-10-19T17:09:30.235Z,16.30
2022-10-19T17:11:36.711Z,16.30
2022-10-19T17:14:06.538Z,16.20
2022-10-19T17:16:36.713Z,16.20
2022-10-19T17:19:06.631Z,16.20
2022-10-19T17:21:38.822Z,16.20
2022-10-19T17:24:09.520Z,16.20
2022-10-19T17:26:39.399Z,16.10
2022-10-19T17:29:07.753Z,16.10
2022-10-19T17:31:36.403Z,16.10
2022-10-19T17:34:04.676Z,16.10
2022-10-19T17:36:36.520Z,16.10
2022-10-19T17:39:07.240Z,16.10
2022-10-19T17:41:35.246Z,16.10
2022-10-19T17:44:05.175Z,16.10
2022-10-19T17:46:35.091Z,16.00
2022-10-19T17:49:03.069Z,16.10
2022-10-19T17:51:33.083Z,16.10
2022-10-19T17:54:04.102Z,16.00
2022-10-19T17:56:32.084Z,16.10
2022-10-19T17:59:02.385Z,16.00
2022-10-19T18:01:31.278Z,16.00
2022-10-19T18:03:59.203Z,16.00
2022-10-19T18:06:29.459Z,16.10
2022-10-19T18:08:58.667Z,16.00
2022-10-19T18:11:29.969Z,16.00
2022-10-19T18:14:00.363Z,16.00
2022-10-19T18:16:30.579Z,16.00
2022-10-19T18:19:00.119Z,15.90
2022-10-19T18:21:30.992Z,15.90
2022-10-19T18:24:00.654Z,15.80
2022-10-19T18:26:31.862Z,15.90
2022-10-19T18:29:00.719Z,15.80
2022-10-19T18:31:30.580Z,15.80
2022-10-19T18:33:59.963Z,15.80
2022-10-19T18:36:28.112Z,15.80
2022-10-19T18:38:58.127Z,15.80
2022-10-19T18:41:26.172Z,15.70
2022-10-19T18:43:57.433Z,15.70
2022-10-19T18:46:26.580Z,15.70
2022-10-19T18:48:54.642Z,15.70
2022-10-19T18:51:24.095Z,15.60
2022-10-19T18:53:52.601Z,15.60
2022-10-19T18:56:22.656Z,15.60
2022-10-19T18:58:50.436Z,15.50
2022-10-19T19:01:22.783Z,15.40
2022-10-19T19:03:52.434Z,15.30
2022-10-19T19:06:21.978Z,15.40
2022-10-19T19:08:49.884Z,15.30
2022-10-19T19:11:19.771Z,15.30
2022-10-19T19:13:49.351Z,15.40
2022-10-19T19:16:17.183Z,15.30
2022-10-19T19:18:46.435Z,15.20
2022-10-19T19:21:16.679Z,15.20
2022-10-19T19:23:44.949Z,15.20
2022-10-19T19:26:14.138Z,15.20
2022-10-19T19:28:44.211Z,15.10
2022-10-19T19:31:15.779Z,15.20
2022-10-19T19:33:43.958Z,15.10
2022-10-19T19:36:16.029Z,15.20
2022-10-19T19:38:44.274Z,15.20
2022-10-19T19:41:13.796Z,15.10
2022-10-19T19:43:42.432Z,15.20
2022-10-19T19:46:12.457Z,15.10
2022-10-19T19:48:42.030Z,15.00
2022-10-19T19:51:10.755Z,15.00
2022-10-19T19:53:40.019Z,15.10
2022-10-19T19:56:09.436Z,15.00
2022-10-19T19:58:37.267Z,15.00
2022-10-19T20:01:12.305Z,14.90
2022-10-19T20:03:41.780Z,14.90
2022-10-19T20:06:10.425Z,14.80
2022-10-19T20:08:40.014Z,14.80
2022-10-19T20:11:09.543Z,14.80
2022-10-19T20:13:37.358Z,14.90
2022-10-19T20:16:09.014Z,14.90
2022-10-19T20:18:36.788Z,14.90
2022-10-19T20:21:06.046Z,14.40
2022-10-19T20:23:34.229Z,14.90
2022-10-19T20:26:03.313Z,14.80
2022-10-19T20:28:33.445Z,14.80
2022-10-19T20:31:02.651Z,14.70
2022-10-19T20:33:31.618Z,14.70
2022-10-19T20:36:04.723Z,14.70
2022-10-19T20:38:32.537Z,14.80
2022-10-19T20:41:02.968Z,14.70
2022-10-19T20:43:35.034Z,14.70
2022-10-19T20:46:04.639Z,14.70
2022-10-19T20:48:32.781Z,14.70
2022-10-19T20:51:11.722Z,14.70
2022-10-19T20:53:39.898Z,14.60
2022-10-19T20:56:09.837Z,14.50
2022-10-19T20:58:40.854Z,14.50
2022-10-19T21:01:10.251Z,14.50
2022-10-19T21:03:38.308Z,14.50
2022-10-19T21:06:07.173Z,14.60
2022-10-19T21:08:35.932Z,14.60
2022-10-19T21:11:12.963Z,14.70
2022-10-19T21:13:42.040Z,14.60
2022-10-19T21:16:11.123Z,14.60
2022-10-19T21:18:39.269Z,14.60
2022-10-19T21:21:15.093Z,14.60
2022-10-19T21:23:43.531Z,14.60
2022-10-19T21:26:11.584Z,14.60
2022-10-19T21:28:40.061Z,14.60
2022-10-19T21:31:10.414Z,14.60
2022-10-19T21:33:38.200Z,14.60
2022-10-19T21:36:08.840Z,14.60
2022-10-19T21:38:36.763Z,14.50
2022-10-19T21:41:06.527Z,14.60
2022-10-19T21:43:35.193Z,14.50
2022-10-19T21:46:03.762Z,14.50
2022-10-19T21:48:33.799Z,14.50
2022-10-19T21:51:11.147Z,14.40
2022-10-19T21:53:38.935Z,14.40
2022-10-19T21:56:07.234Z,14.40
2022-10-19T21:58:35.025Z,14.40
2022-10-19T22:01:05.525Z,14.40
2022-10-19T22:03:35.389Z,14.50
2022-10-19T22:06:03.155Z,14.40
2022-10-19T22:08:30.942Z,14.50
2022-10-19T22:10:58.755Z,14.50
2022-10-19T22:13:26.548Z,14.40
2022-10-19T22:15:54.287Z,14.40
2022-10-19T22:18:22.008Z,14.40
2022-10-19T22:20:51.117Z,14.40
2022-10-19T22:23:18.859Z,14.30
2022-10-19T22:25:46.596Z,14.30
2022-10-19T22:28:14.347Z,14.30
2022-10-19T22:30:44.942Z,14.20
2022-10-19T22:33:12.696Z,14.20
2022-10-19T22:35:40.434Z,14.10
2022-10-19T22:38:09.544Z,14.10
2022-10-19T22:40:37.287Z,14.20
2022-10-19T22:43:06.790Z,14.10
2022-10-19T22:45:34.755Z,14.20
2022-10-19T22:48:02.675Z,14.10
2022-10-19T22:50:30.446Z,14.20
2022-10-19T22:52:58.216Z,14.20
2022-10-19T22:55:27.361Z,14.20
2022-10-19T22:57:55.153Z,14.20
2022-10-19T23:00:22.970Z,14.20
2022-10-19T23:02:50.734Z,14.20
2022-10-19T23:05:18.525Z,14.10
2022-10-19T23:07:46.340Z,14.20
2022-10-19T23:10:14.171Z,14.20
2022-10-19T23:12:43.347Z,14.10
2022-10-19T23:15:11.778Z,14.10
2022-10-19T23:17:39.548Z,14.10
2022-10-19T23:20:08.621Z,14.10
2022-10-19T23:22:36.391Z,14.10
2022-10-19T23:25:04.316Z,14.00
2022-10-19T23:27:32.197Z,14.10
2022-10-19T23:30:01.488Z,14.10
2022-10-19T23:32:29.277Z,14.10
2022-10-19T23:34:57.109Z,14.10
2022-10-19T23:37:24.989Z,14.10
2022-10-19T23:39:52.743Z,14.10
2022-10-19T23:42:20.478Z,14.10
2022-10-19T23:44:48.238Z,14.10
2022-10-19T23:47:17.354Z,14.10
2022-10-19T23:49:45.148Z,14.10
2022-10-19T23:52:12.865Z,14.10
2022-10-19T23:54:40.643Z,14.00
2022-10-19T23:57:08.467Z,14.10
2022-10-19T23:59:36.224Z,14.10
